C6504 KVQQ-KVQQ

Flight info

Callsign C6504
Flight time 0h 35m
Altitude 1500
Route VFR
Aircraft AS65/L-V/N

Departure

Time 2026-04-23 17:07
Airport Cecil Airport (KVQQ)

Arrival

Time 2026-04-23 17:42
Airport Cecil Airport (KVQQ)
Time Latitude Longitude Altitude Speed Heading
2026-04-23 16:54 30.22055 -81.88889 99 ft 0 kts
2026-04-23 17:02 30.22055 -81.88888 81 ft 0 kts
2026-04-23 17:02 30.22055 -81.88889 81 ft 0 kts
2026-04-23 17:03 30.22055 -81.88888 81 ft 0 kts
2026-04-23 17:03 30.22055 -81.88889 81 ft 0 kts
2026-04-23 17:04 30.22055 -81.88888 81 ft 0 kts
2026-04-23 17:04 30.22055 -81.88889 81 ft 0 kts
2026-04-23 17:04 30.22055 -81.88888 81 ft 0 kts 360°
2026-04-23 17:05 30.22068 -81.88890 176 ft 5 kts 118°
2026-04-23 17:06 30.22059 -81.88533 341 ft 81 kts 89°
2026-04-23 17:06 30.22095 -81.87757 458 ft 111 kts 88°
2026-04-23 17:06 30.22170 -81.86790 528 ft 132 kts 87°
2026-04-23 17:06 30.22248 -81.85686 654 ft 141 kts 90°
2026-04-23 17:07 30.22402 -81.84526 927 ft 151 kts 82°
2026-04-23 17:07 30.22625 -81.83302 1127 ft 156 kts 79°
2026-04-23 17:07 30.22828 -81.82093 1228 ft 149 kts 82°
2026-04-23 17:07 30.23020 -81.80856 1108 ft 163 kts 82°
2026-04-23 17:08 30.23250 -81.79531 924 ft 173 kts 81°
2026-04-23 17:08 30.23507 -81.78180 971 ft 162 kts 80°
2026-04-23 17:08 30.23764 -81.76927 1021 ft 161 kts 79°
2026-04-23 17:08 30.23954 -81.75685 1157 ft 151 kts 99°
2026-04-23 17:09 30.23274 -81.74868 1256 ft 150 kts 152°
2026-04-23 17:09 30.22321 -81.74250 1067 ft 152 kts 151°
2026-04-23 17:09 30.21530 -81.73652 1176 ft 130 kts 138°
2026-04-23 17:09 30.20856 -81.72882 983 ft 141 kts 135°
2026-04-23 17:10 30.20164 -81.72031 790 ft 149 kts 132°
2026-04-23 17:10 30.19499 -81.71218 1122 ft 133 kts 134°
2026-04-23 17:10 30.19140 -81.70261 1012 ft 142 kts 96°
2026-04-23 17:10 30.19060 -81.69000 976 ft 158 kts 100°
2026-04-23 17:11 30.19032 -81.67778 1103 ft 152 kts 90°
2026-04-23 17:11 30.19156 -81.66569 681 ft 154 kts 70°
2026-04-23 17:11 30.19910 -81.65708 430 ft 163 kts 26°
2026-04-23 17:11 30.20855 -81.65786 605 ft 141 kts 302°
2026-04-23 17:12 30.20513 -81.66714 502 ft 140 kts 205°
2026-04-23 17:12 30.19575 -81.67150 640 ft 149 kts 199°
2026-04-23 17:12 30.18629 -81.67531 928 ft 137 kts 197°
2026-04-23 17:12 30.17733 -81.67867 841 ft 144 kts 196°
2026-04-23 17:13 30.16723 -81.68155 793 ft 154 kts 186°
2026-04-23 17:13 30.15674 -81.68271 862 ft 135 kts 198°
2026-04-23 17:13 30.15044 -81.68554 674 ft 69 kts 219°
2026-04-23 17:13 30.14696 -81.68782 307 ft 57 kts 175°
2026-04-23 17:14 30.14235 -81.68768 296 ft 61 kts 205°
2026-04-23 17:14 30.13893 -81.68893 532 ft 25 kts 285°
2026-04-23 17:14 30.13675 -81.68838 700 ft 61 kts 147°
2026-04-23 17:14 30.13224 -81.68568 741 ft 88 kts 152°
2026-04-23 17:15 30.12613 -81.68265 594 ft 99 kts 145°
2026-04-23 17:15 30.12322 -81.68049 421 ft 56 kts 148°
2026-04-23 17:15 30.11886 -81.67725 278 ft 51 kts 126°
2026-04-23 17:15 30.11823 -81.67494 269 ft 33 kts 142°
2026-04-23 17:16 30.11814 -81.67306 193 ft 20 kts 148°
2026-04-23 17:16 30.11834 -81.67212 232 ft 6 kts 149°
2026-04-23 17:16 30.11921 -81.67247 206 ft 16 kts 150°
2026-04-23 17:16 30.11961 -81.67142 215 ft 8 kts 115°
2026-04-23 17:17 30.12050 -81.67354 220 ft 40 kts 83°
2026-04-23 17:17 30.12179 -81.67365 289 ft 27 kts 81°
2026-04-23 17:17 30.12169 -81.67160 244 ft 4 kts 99°
2026-04-23 17:17 30.12228 -81.67238 225 ft 17 kts 206°
2026-04-23 17:18 30.12251 -81.67054 144 ft 17 kts 99°
2026-04-23 17:18 30.12222 -81.66975 142 ft 12 kts 57°
2026-04-23 17:18 30.12255 -81.67124 178 ft 23 kts 32°
2026-04-23 17:19 30.12227 -81.67111 151 ft 38 kts 14°
2026-04-23 17:19 30.12400 -81.66840 338 ft 51 kts 66°
2026-04-23 17:19 30.12415 -81.66585 614 ft 30 kts 169°
2026-04-23 17:19 30.12178 -81.66726 677 ft 53 kts 220°
2026-04-23 17:20 30.12056 -81.67208 856 ft 73 kts 266°
2026-04-23 17:20 30.12684 -81.68162 878 ft 75 kts 337°
2026-04-23 17:21 30.12205 -81.68705 413 ft 137 kts 164°
2026-04-23 17:21 30.11294 -81.68271 544 ft 133 kts 153°
2026-04-23 17:21 30.10395 -81.66872 972 ft 107 kts 71°
2026-04-23 17:22 30.10911 -81.66332 1354 ft 102 kts 27°
2026-04-23 17:22 30.12080 -81.65857 1066 ft 87 kts 53°
2026-04-23 17:23 30.12634 -81.64899 392 ft 101 kts 65°
2026-04-23 17:23 30.12929 -81.64264 245 ft 67 kts 69°
2026-04-23 17:23 30.12898 -81.63899 161 ft 28 kts 179°
2026-04-23 17:24 30.12847 -81.64031 174 ft 14 kts 174°
2026-04-23 17:24 30.12912 -81.64065 194 ft 21 kts 128°
2026-04-23 17:24 30.13027 -81.64129 561 ft 43 kts 73°
2026-04-23 17:25 30.13502 -81.62866 839 ft 118 kts 70°
2026-04-23 17:25 30.13922 -81.61886 841 ft 154 kts 76°
2026-04-23 17:26 30.13879 -81.60278 903 ft 92 kts 90°
2026-04-23 17:26 30.13763 -81.58312 954 ft 148 kts 99°
2026-04-23 17:27 30.13420 -81.55934 1256 ft 150 kts 105°
2026-04-23 17:27 30.13270 -81.54756 909 ft 149 kts 97°
2026-04-23 17:27 30.13283 -81.53510 929 ft 155 kts 91°
2026-04-23 17:27 30.13278 -81.52283 1030 ft 152 kts 93°
2026-04-23 17:28 30.13329 -81.51085 826 ft 140 kts 86°
2026-04-23 17:28 30.13391 -81.49953 957 ft 142 kts 90°
2026-04-23 17:28 30.13416 -81.48836 1115 ft 141 kts 90°
2026-04-23 17:28 30.13400 -81.47703 1177 ft 136 kts 94°
2026-04-23 17:29 30.13335 -81.46606 1235 ft 136 kts 97°
2026-04-23 17:29 30.13224 -81.45571 1072 ft 134 kts 101°
2026-04-23 17:29 30.13028 -81.44312 1059 ft 131 kts 105°
2026-04-23 17:30 30.12879 -81.43622 854 ft 129 kts 106°
2026-04-23 17:30 30.12378 -81.41563 1175 ft 132 kts 107°
2026-04-23 17:30 30.12231 -81.40501 1117 ft 144 kts 95°
2026-04-23 17:31 30.12421 -81.39327 1059 ft 146 kts 77°
2026-04-23 17:31 30.12709 -81.38186 1030 ft 149 kts 78°
2026-04-23 17:31 30.13069 -81.37105 971 ft 136 kts
2026-04-23 17:31 30.13664 -81.37895 632 ft 161 kts 275°
2026-04-23 17:32 30.13693 -81.39169 583 ft 175 kts 277°
2026-04-23 17:32 30.13793 -81.40539 666 ft 170 kts 276°
2026-04-23 17:32 30.13883 -81.41823 727 ft 166 kts 278°
2026-04-23 17:32 30.13990 -81.43132 410 ft 163 kts 277°
2026-04-23 17:33 30.14082 -81.44461 524 ft 167 kts 277°
2026-04-23 17:33 30.14150 -81.45765 575 ft 168 kts 275°
2026-04-23 17:33 30.14210 -81.47106 597 ft 169 kts 274°
2026-04-23 17:33 30.14258 -81.48471 556 ft 170 kts 273°
2026-04-23 17:34 30.14383 -81.49808 570 ft 163 kts 284°
2026-04-23 17:34 30.14702 -81.50809 582 ft 141 kts 303°
2026-04-23 17:34 30.15739 -81.52559 559 ft 131 kts 300°
2026-04-23 17:35 30.16141 -81.53531 540 ft 144 kts 297°
2026-04-23 17:35 30.16972 -81.55604 554 ft 143 kts 298°
2026-04-23 17:35 30.17391 -81.56647 565 ft 144 kts 296°
2026-04-23 17:36 30.17793 -81.57728 981 ft 148 kts 297°
2026-04-23 17:36 30.18208 -81.58795 1010 ft 145 kts 297°
2026-04-23 17:36 30.18651 -81.59910 1019 ft 154 kts 297°
2026-04-23 17:36 30.19103 -81.61023 1008 ft 155 kts 298°
2026-04-23 17:37 30.19574 -81.62186 1002 ft 163 kts 296°
2026-04-23 17:37 30.20051 -81.63364 996 ft 167 kts 297°
2026-04-23 17:37 30.21054 -81.65860 1015 ft 171 kts 298°
2026-04-23 17:38 30.21552 -81.67093 1011 ft 169 kts 298°
2026-04-23 17:38 30.21981 -81.68394 1046 ft 184 kts 283°
2026-04-23 17:38 30.22031 -81.69911 1066 ft 186 kts 268°
2026-04-23 17:38 30.21977 -81.71344 1218 ft 171 kts 265°
2026-04-23 17:39 30.21812 -81.72695 1165 ft 170 kts 265°
2026-04-23 17:39 30.21689 -81.74004 1418 ft 159 kts 263°
2026-04-23 17:39 30.21577 -81.75232 1587 ft 148 kts 264°
2026-04-23 17:39 30.21492 -81.76379 1574 ft 138 kts 267°
2026-04-23 17:40 30.21430 -81.77440 1607 ft 131 kts 268°
2026-04-23 17:40 30.21390 -81.78469 1504 ft 126 kts 267°
2026-04-23 17:40 30.21350 -81.79478 1696 ft 125 kts 269°
2026-04-23 17:40 30.21299 -81.80458 1871 ft 120 kts 268°
2026-04-23 17:41 30.21390 -81.81434 1504 ft 138 kts 282°
2026-04-23 17:41 30.21809 -81.84093 613 ft 171 kts 275°
2026-04-23 17:41 30.21851 -81.85263 675 ft 110 kts 277°
2026-04-23 17:42 30.21928 -81.86660 465 ft 95 kts 273°
2026-04-23 17:42 30.21932 -81.87386 455 ft 60 kts 267°
2026-04-23 17:42 30.21928 -81.87761 351 ft 48 kts 277°
2026-04-23 17:43 30.21916 -81.88202 326 ft 60 kts 270°
2026-04-23 17:43 30.21931 -81.88601 323 ft 33 kts 308°
2026-04-23 17:43 30.22042 -81.88774 164 ft 23 kts 351°
2026-04-23 17:43 30.22012 -81.88871 149 ft 16 kts 294°
2026-04-23 17:44 30.22059 -81.88902 173 ft 11 kts 358°
2026-04-23 17:44 30.22075 -81.88911 103 ft 1 kts